sensor_id;sensor_type;location;lat;lon;timestamp;temperature;humidity
19180;DHT22;9722;48.754;8.868;2022-12-07T00:01:41;4.80;98.70
19180;DHT22;9722;48.754;8.868;2022-12-07T00:05:02;4.80;98.60
19180;DHT22;9722;48.754;8.868;2022-12-07T00:08:22;4.80;98.70
19180;DHT22;9722;48.754;8.868;2022-12-07T00:11:44;4.80;98.70
19180;DHT22;9722;48.754;8.868;2022-12-07T00:15:05;4.80;98.70
19180;DHT22;9722;48.754;8.868;2022-12-07T00:18:25;4.80;98.60
19180;DHT22;9722;48.754;8.868;2022-12-07T00:21:46;4.70;98.60
19180;DHT22;9722;48.754;8.868;2022-12-07T00:25:07;4.70;98.60
19180;DHT22;9722;48.754;8.868;2022-12-07T00:28:27;4.70;98.60
19180;DHT22;9722;48.754;8.868;2022-12-07T00:31:48;4.70;98.60
19180;DHT22;9722;48.754;8.868;2022-12-07T00:35:08;4.70;98.60
19180;DHT22;9722;48.754;8.868;2022-12-07T00:38:30;4.60;98.60
19180;DHT22;9722;48.754;8.868;2022-12-07T00:41:52;4.60;98.70
19180;DHT22;9722;48.754;8.868;2022-12-07T00:45:12;4.60;98.70
19180;DHT22;9722;48.754;8.868;2022-12-07T00:48:33;4.60;98.70
19180;DHT22;9722;48.754;8.868;2022-12-07T00:51:54;4.60;98.70
19180;DHT22;9722;48.754;8.868;2022-12-07T00:55:14;4.60;98.70
19180;DHT22;9722;48.754;8.868;2022-12-07T00:58:35;4.60;98.80
19180;DHT22;9722;48.754;8.868;2022-12-07T01:01:55;4.50;98.60
19180;DHT22;9722;48.754;8.868;2022-12-07T01:05:16;4.50;98.60
19180;DHT22;9722;48.754;8.868;2022-12-07T01:08:36;4.50;98.60
19180;DHT22;9722;48.754;8.868;2022-12-07T01:11:57;4.40;98.70
19180;DHT22;9722;48.754;8.868;2022-12-07T01:15:17;4.40;98.70
19180;DHT22;9722;48.754;8.868;2022-12-07T01:18:38;4.40;98.70
19180;DHT22;9722;48.754;8.868;2022-12-07T01:21:59;4.30;98.70
19180;DHT22;9722;48.754;8.868;2022-12-07T01:25:20;4.30;98.70
19180;DHT22;9722;48.754;8.868;2022-12-07T01:28:40;4.30;98.80
19180;DHT22;9722;48.754;8.868;2022-12-07T01:32:01;4.30;98.90
19180;DHT22;9722;48.754;8.868;2022-12-07T01:35:21;4.40;98.90
19180;DHT22;9722;48.754;8.868;2022-12-07T01:38:43;4.40;98.90
19180;DHT22;9722;48.754;8.868;2022-12-07T01:42:03;4.40;98.80
19180;DHT22;9722;48.754;8.868;2022-12-07T01:45:40;4.40;98.70
19180;DHT22;9722;48.754;8.868;2022-12-07T01:49:01;4.40;98.70
19180;DHT22;9722;48.754;8.868;2022-12-07T01:55:47;4.40;98.70
19180;DHT22;9722;48.754;8.868;2022-12-07T01:59:10;4.40;98.70
19180;DHT22;9722;48.754;8.868;2022-12-07T02:02:36;4.40;98.70
19180;DHT22;9722;48.754;8.868;2022-12-07T02:05:58;4.40;98.70
19180;DHT22;9722;48.754;8.868;2022-12-07T02:09:20;4.40;98.70
19180;DHT22;9722;48.754;8.868;2022-12-07T02:12:41;4.40;98.70
19180;DHT22;9722;48.754;8.868;2022-12-07T02:23:23;4.30;98.70
19180;DHT22;9722;48.754;8.868;2022-12-07T02:30:31;4.30;98.80
19180;DHT22;9722;48.754;8.868;2022-12-07T02:34:01;4.30;98.90
19180;DHT22;9722;48.754;8.868;2022-12-07T02:37:58;4.20;98.90
19180;DHT22;9722;48.754;8.868;2022-12-07T02:41:24;4.20;98.90
19180;DHT22;9722;48.754;8.868;2022-12-07T02:44:46;4.20;98.90
19180;DHT22;9722;48.754;8.868;2022-12-07T02:48:08;4.20;99.00
19180;DHT22;9722;48.754;8.868;2022-12-07T02:51:31;4.20;99.10
19180;DHT22;9722;48.754;8.868;2022-12-07T02:54:52;4.10;99.10
19180;DHT22;9722;48.754;8.868;2022-12-07T03:02:38;4.10;99.10
19180;DHT22;9722;48.754;8.868;2022-12-07T03:09:51;4.00;99.10
19180;DHT22;9722;48.754;8.868;2022-12-07T03:17:25;3.90;99.10
19180;DHT22;9722;48.754;8.868;2022-12-07T03:20:49;3.80;99.10
19180;DHT22;9722;48.754;8.868;2022-12-07T03:24:15;3.80;99.20
19180;DHT22;9722;48.754;8.868;2022-12-07T03:27:43;3.80;99.20
19180;DHT22;9722;48.754;8.868;2022-12-07T03:31:26;3.80;99.20
19180;DHT22;9722;48.754;8.868;2022-12-07T03:34:56;3.70;99.10
19180;DHT22;9722;48.754;8.868;2022-12-07T03:38:35;3.70;99.00
19180;DHT22;9722;48.754;8.868;2022-12-07T03:41:59;3.60;98.90
19180;DHT22;9722;48.754;8.868;2022-12-07T03:45:24;3.60;98.90
19180;DHT22;9722;48.754;8.868;2022-12-07T03:48:57;3.50;98.90
19180;DHT22;9722;48.754;8.868;2022-12-07T03:56:18;3.40;99.10
19180;DHT22;9722;48.754;8.868;2022-12-07T03:59:40;3.40;99.10
19180;DHT22;9722;48.754;8.868;2022-12-07T04:03:02;3.30;99.20
19180;DHT22;9722;48.754;8.868;2022-12-07T04:06:22;3.30;99.10
19180;DHT22;9722;48.754;8.868;2022-12-07T04:09:43;3.20;99.10
19180;DHT22;9722;48.754;8.868;2022-12-07T04:13:03;3.30;99.20
19180;DHT22;9722;48.754;8.868;2022-12-07T04:16:24;3.30;99.30
19180;DHT22;9722;48.754;8.868;2022-12-07T04:19:44;3.30;99.40
19180;DHT22;9722;48.754;8.868;2022-12-07T04:23:05;3.20;99.30
19180;DHT22;9722;48.754;8.868;2022-12-07T04:26:25;3.30;99.40
19180;DHT22;9722;48.754;8.868;2022-12-07T04:29:46;3.20;99.40
19180;DHT22;9722;48.754;8.868;2022-12-07T04:33:06;3.30;99.30
19180;DHT22;9722;48.754;8.868;2022-12-07T04:36:29;3.30;99.20
19180;DHT22;9722;48.754;8.868;2022-12-07T04:39:50;3.20;99.10
19180;DHT22;9722;48.754;8.868;2022-12-07T04:43:10;3.10;98.90
19180;DHT22;9722;48.754;8.868;2022-12-07T04:46:31;3.00;98.80
19180;DHT22;9722;48.754;8.868;2022-12-07T04:49:52;2.80;98.80
19180;DHT22;9722;48.754;8.868;2022-12-07T04:53:12;2.60;98.90
19180;DHT22;9722;48.754;8.868;2022-12-07T04:56:33;2.40;99.00
19180;DHT22;9722;48.754;8.868;2022-12-07T04:59:55;2.30;99.00
19180;DHT22;9722;48.754;8.868;2022-12-07T05:03:15;2.20;99.00
19180;DHT22;9722;48.754;8.868;2022-12-07T05:06:36;2.20;98.90
19180;DHT22;9722;48.754;8.868;2022-12-07T05:09:56;2.20;98.70
19180;DHT22;9722;48.754;8.868;2022-12-07T05:13:17;2.10;98.60
19180;DHT22;9722;48.754;8.868;2022-12-07T05:16:38;2.00;98.50
19180;DHT22;9722;48.754;8.868;2022-12-07T05:19:59;1.90;98.50
19180;DHT22;9722;48.754;8.868;2022-12-07T05:23:19;1.70;98.70
19180;DHT22;9722;48.754;8.868;2022-12-07T05:26:40;1.60;98.40
19180;DHT22;9722;48.754;8.868;2022-12-07T05:30:01;1.50;98.40
19180;DHT22;9722;48.754;8.868;2022-12-07T05:33:21;1.30;98.40
19180;DHT22;9722;48.754;8.868;2022-12-07T05:36:42;1.20;98.60
19180;DHT22;9722;48.754;8.868;2022-12-07T05:40:03;1.00;98.70
19180;DHT22;9722;48.754;8.868;2022-12-07T05:43:24;0.90;98.80
19180;DHT22;9722;48.754;8.868;2022-12-07T05:46:45;0.80;99.10
19180;DHT22;9722;48.754;8.868;2022-12-07T05:50:06;0.70;99.30
19180;DHT22;9722;48.754;8.868;2022-12-07T05:53:27;0.80;99.50
19180;DHT22;9722;48.754;8.868;2022-12-07T05:56:47;0.80;99.60
19180;DHT22;9722;48.754;8.868;2022-12-07T06:00:08;0.90;99.90
19180;DHT22;9722;48.754;8.868;2022-12-07T06:03:29;1.00;99.70
19180;DHT22;9722;48.754;8.868;2022-12-07T06:06:49;1.10;99.80
19180;DHT22;9722;48.754;8.868;2022-12-07T06:10:10;1.30;99.80
19180;DHT22;9722;48.754;8.868;2022-12-07T06:13:31;1.40;99.80
19180;DHT22;9722;48.754;8.868;2022-12-07T06:16:51;1.50;99.60
19180;DHT22;9722;48.754;8.868;2022-12-07T06:20:12;1.60;99.60
19180;DHT22;9722;48.754;8.868;2022-12-07T06:23:33;1.70;99.50
19180;DHT22;9722;48.754;8.868;2022-12-07T06:26:54;1.80;99.40
19180;DHT22;9722;48.754;8.868;2022-12-07T06:30:15;1.90;99.40
19180;DHT22;9722;48.754;8.868;2022-12-07T06:33:35;2.00;99.40
19180;DHT22;9722;48.754;8.868;2022-12-07T06:36:56;2.00;99.30
19180;DHT22;9722;48.754;8.868;2022-12-07T06:40:16;2.00;99.20
19180;DHT22;9722;48.754;8.868;2022-12-07T06:43:37;2.10;99.40
19180;DHT22;9722;48.754;8.868;2022-12-07T06:46:58;2.10;99.00
19180;DHT22;9722;48.754;8.868;2022-12-07T06:50:19;2.10;98.90
19180;DHT22;9722;48.754;8.868;2022-12-07T06:53:39;2.10;98.90
19180;DHT22;9722;48.754;8.868;2022-12-07T06:57:00;2.10;98.80
19180;DHT22;9722;48.754;8.868;2022-12-07T07:00:20;2.10;98.70
19180;DHT22;9722;48.754;8.868;2022-12-07T07:03:41;2.00;98.70
19180;DHT22;9722;48.754;8.868;2022-12-07T07:07:01;2.00;98.70
19180;DHT22;9722;48.754;8.868;2022-12-07T07:10:22;2.00;98.70
19180;DHT22;9722;48.754;8.868;2022-12-07T07:13:43;1.90;98.70
19180;DHT22;9722;48.754;8.868;2022-12-07T07:17:04;2.00;98.70
19180;DHT22;9722;48.754;8.868;2022-12-07T07:20:24;1.90;98.70
19180;DHT22;9722;48.754;8.868;2022-12-07T07:23:45;1.90;98.80
19180;DHT22;9722;48.754;8.868;2022-12-07T07:27:05;2.00;98.90
19180;DHT22;9722;48.754;8.868;2022-12-07T07:30:27;2.00;98.80
19180;DHT22;9722;48.754;8.868;2022-12-07T07:33:47;2.10;98.60
19180;DHT22;9722;48.754;8.868;2022-12-07T07:37:08;2.30;98.50
19180;DHT22;9722;48.754;8.868;2022-12-07T07:40:30;2.40;98.20
19180;DHT22;9722;48.754;8.868;2022-12-07T07:43:50;2.50;97.80
19180;DHT22;9722;48.754;8.868;2022-12-07T07:47:11;2.70;97.30
19180;DHT22;9722;48.754;8.868;2022-12-07T07:50:31;2.80;96.90
19180;DHT22;9722;48.754;8.868;2022-12-07T07:53:52;2.90;96.40
19180;DHT22;9722;48.754;8.868;2022-12-07T07:57:12;3.00;96.10
19180;DHT22;9722;48.754;8.868;2022-12-07T08:00:33;3.10;95.90
19180;DHT22;9722;48.754;8.868;2022-12-07T08:03:53;3.20;95.60
19180;DHT22;9722;48.754;8.868;2022-12-07T08:07:15;3.20;95.30
19180;DHT22;9722;48.754;8.868;2022-12-07T08:10:35;3.30;94.80
19180;DHT22;9722;48.754;8.868;2022-12-07T08:13:57;3.30;94.40
19180;DHT22;9722;48.754;8.868;2022-12-07T08:17:17;3.40;94.10
19180;DHT22;9722;48.754;8.868;2022-12-07T08:20:40;3.50;93.80
19180;DHT22;9722;48.754;8.868;2022-12-07T08:24:01;3.50;93.60
19180;DHT22;9722;48.754;8.868;2022-12-07T08:27:21;3.60;93.40
19180;DHT22;9722;48.754;8.868;2022-12-07T08:30:47;3.70;93.10
19180;DHT22;9722;48.754;8.868;2022-12-07T08:34:07;3.80;92.70
19180;DHT22;9722;48.754;8.868;2022-12-07T08:37:30;3.90;92.50
19180;DHT22;9722;48.754;8.868;2022-12-07T08:40:58;4.10;92.30
19180;DHT22;9722;48.754;8.868;2022-12-07T08:44:19;4.20;91.90
19180;DHT22;9722;48.754;8.868;2022-12-07T08:48:03;4.30;91.60
19180;DHT22;9722;48.754;8.868;2022-12-07T08:51:26;4.40;91.40
19180;DHT22;9722;48.754;8.868;2022-12-07T08:54:47;4.50;91.10
19180;DHT22;9722;48.754;8.868;2022-12-07T08:58:07;4.60;90.90
19180;DHT22;9722;48.754;8.868;2022-12-07T09:01:28;4.70;90.80
19180;DHT22;9722;48.754;8.868;2022-12-07T09:04:49;4.70;90.70
19180;DHT22;9722;48.754;8.868;2022-12-07T09:08:09;4.80;90.50
19180;DHT22;9722;48.754;8.868;2022-12-07T09:11:30;4.90;90.40
19180;DHT22;9722;48.754;8.868;2022-12-07T09:14:51;5.00;90.10
19180;DHT22;9722;48.754;8.868;2022-12-07T09:18:11;5.10;90.00
19180;DHT22;9722;48.754;8.868;2022-12-07T09:21:32;5.20;89.80
19180;DHT22;9722;48.754;8.868;2022-12-07T09:24:53;5.30;89.60
19180;DHT22;9722;48.754;8.868;2022-12-07T09:28:14;5.40;89.30
19180;DHT22;9722;48.754;8.868;2022-12-07T09:31:36;5.60;89.10
19180;DHT22;9722;48.754;8.868;2022-12-07T09:34:57;5.80;88.20
19180;DHT22;9722;48.754;8.868;2022-12-07T09:38:18;6.00;87.50
19180;DHT22;9722;48.754;8.868;2022-12-07T09:41:41;6.30;86.60
19180;DHT22;9722;48.754;8.868;2022-12-07T09:45:06;6.50;85.30
19180;DHT22;9722;48.754;8.868;2022-12-07T09:52:26;6.90;82.80
19180;DHT22;9722;48.754;8.868;2022-12-07T09:55:47;6.90;82.10
19180;DHT22;9722;48.754;8.868;2022-12-07T09:59:17;6.90;81.50
19180;DHT22;9722;48.754;8.868;2022-12-07T10:06:02;7.00;81.60
19180;DHT22;9722;48.754;8.868;2022-12-07T10:09:22;7.00;81.20
19180;DHT22;9722;48.754;8.868;2022-12-07T10:12:58;7.00;81.10
19180;DHT22;9722;48.754;8.868;2022-12-07T10:19:48;7.10;81.20
19180;DHT22;9722;48.754;8.868;2022-12-07T10:23:15;7.10;80.90
19180;DHT22;9722;48.754;8.868;2022-12-07T10:26:40;7.30;80.50
19180;DHT22;9722;48.754;8.868;2022-12-07T10:30:07;7.40;78.90
19180;DHT22;9722;48.754;8.868;2022-12-07T10:33:38;7.50;78.80
19180;DHT22;9722;48.754;8.868;2022-12-07T10:37:16;7.90;79.00
19180;DHT22;9722;48.754;8.868;2022-12-07T10:40:36;8.10;76.50
19180;DHT22;9722;48.754;8.868;2022-12-07T10:43:57;8.20;76.60
19180;DHT22;9722;48.754;8.868;2022-12-07T10:47:36;8.50;76.40
19180;DHT22;9722;48.754;8.868;2022-12-07T10:54:32;8.60;75.20
19180;DHT22;9722;48.754;8.868;2022-12-07T11:01:49;8.20;75.10
19180;DHT22;9722;48.754;8.868;2022-12-07T11:05:39;8.00;75.60
19180;DHT22;9722;48.754;8.868;2022-12-07T11:13:22;7.90;76.70
19180;DHT22;9722;48.754;8.868;2022-12-07T11:16:52;7.90;76.80
19180;DHT22;9722;48.754;8.868;2022-12-07T11:20:35;7.90;76.80
19180;DHT22;9722;48.754;8.868;2022-12-07T11:24:04;7.80;76.90
19180;DHT22;9722;48.754;8.868;2022-12-07T11:30:57;7.70;77.20
19180;DHT22;9722;48.754;8.868;2022-12-07T11:35:29;7.70;77.40
19180;DHT22;9722;48.754;8.868;2022-12-07T11:38:53;7.60;77.80
19180;DHT22;9722;48.754;8.868;2022-12-07T11:42:21;7.50;78.20
19180;DHT22;9722;48.754;8.868;2022-12-07T11:45:45;7.50;78.30
19180;DHT22;9722;48.754;8.868;2022-12-07T11:49:21;7.40;78.20
19180;DHT22;9722;48.754;8.868;2022-12-07T11:56:21;7.50;78.80
19180;DHT22;9722;48.754;8.868;2022-12-07T11:59:48;7.70;78.50
19180;DHT22;9722;48.754;8.868;2022-12-07T12:03:23;7.90;77.70
19180;DHT22;9722;48.754;8.868;2022-12-07T12:06:50;7.90;76.80
19180;DHT22;9722;48.754;8.868;2022-12-07T12:10:25;7.70;76.50
19180;DHT22;9722;48.754;8.868;2022-12-07T12:18:13;7.30;77.00
19180;DHT22;9722;48.754;8.868;2022-12-07T12:21:38;7.10;77.60
19180;DHT22;9722;48.754;8.868;2022-12-07T12:25:00;6.90;78.20
19180;DHT22;9722;48.754;8.868;2022-12-07T12:28:39;6.70;78.00
19180;DHT22;9722;48.754;8.868;2022-12-07T12:32:19;6.70;78.70
19180;DHT22;9722;48.754;8.868;2022-12-07T12:35:41;6.60;79.00
19180;DHT22;9722;48.754;8.868;2022-12-07T12:42:53;6.50;79.70
19180;DHT22;9722;48.754;8.868;2022-12-07T12:50:17;6.80;79.80
19180;DHT22;9722;48.754;8.868;2022-12-07T12:53:38;7.20;79.80
19180;DHT22;9722;48.754;8.868;2022-12-07T13:00:46;7.40;77.90
19180;DHT22;9722;48.754;8.868;2022-12-07T13:04:24;7.30;77.70
19180;DHT22;9722;48.754;8.868;2022-12-07T13:14:55;7.40;77.70
19180;DHT22;9722;48.754;8.868;2022-12-07T13:21:52;7.30;77.30
19180;DHT22;9722;48.754;8.868;2022-12-07T13:25:21;7.20;77.60
19180;DHT22;9722;48.754;8.868;2022-12-07T13:29:19;7.20;78.10
19180;DHT22;9722;48.754;8.868;2022-12-07T13:32:43;7.30;78.40
19180;DHT22;9722;48.754;8.868;2022-12-07T13:36:21;7.80;78.40
19180;DHT22;9722;48.754;8.868;2022-12-07T13:40:00;8.60;77.50
19180;DHT22;9722;48.754;8.868;2022-12-07T13:43:21;9.70;75.10
19180;DHT22;9722;48.754;8.868;2022-12-07T13:50:29;10.50;69.90
19180;DHT22;9722;48.754;8.868;2022-12-07T13:53:54;10.60;69.40
19180;DHT22;9722;48.754;8.868;2022-12-07T13:57:16;10.60;68.40
19180;DHT22;9722;48.754;8.868;2022-12-07T14:00:36;10.20;68.00
19180;DHT22;9722;48.754;8.868;2022-12-07T14:04:17;9.60;69.00
19180;DHT22;9722;48.754;8.868;2022-12-07T14:07:58;9.00;70.20
19180;DHT22;9722;48.754;8.868;2022-12-07T14:11:19;8.50;71.20
19180;DHT22;9722;48.754;8.868;2022-12-07T14:14:47;8.10;72.00
19180;DHT22;9722;48.754;8.868;2022-12-07T14:18:46;7.80;73.10
19180;DHT22;9722;48.754;8.868;2022-12-07T14:22:08;7.50;73.80
19180;DHT22;9722;48.754;8.868;2022-12-07T14:25:32;7.30;74.60
19180;DHT22;9722;48.754;8.868;2022-12-07T14:29:17;7.10;75.40
19180;DHT22;9722;48.754;8.868;2022-12-07T14:32:36;7.00;75.90
19180;DHT22;9722;48.754;8.868;2022-12-07T14:35:57;6.80;76.40
19180;DHT22;9722;48.754;8.868;2022-12-07T14:39:18;6.70;76.80
19180;DHT22;9722;48.754;8.868;2022-12-07T14:42:39;6.50;77.20
19180;DHT22;9722;48.754;8.868;2022-12-07T14:45:59;6.40;77.60
19180;DHT22;9722;48.754;8.868;2022-12-07T14:49:23;6.20;78.00
19180;DHT22;9722;48.754;8.868;2022-12-07T14:52:52;6.10;78.50
19180;DHT22;9722;48.754;8.868;2022-12-07T14:56:14;5.90;79.00
19180;DHT22;9722;48.754;8.868;2022-12-07T14:59:35;5.80;79.60
19180;DHT22;9722;48.754;8.868;2022-12-07T15:02:56;5.60;80.10
19180;DHT22;9722;48.754;8.868;2022-12-07T15:06:17;5.50;80.70
19180;DHT22;9722;48.754;8.868;2022-12-07T15:09:38;5.40;81.40
19180;DHT22;9722;48.754;8.868;2022-12-07T15:13:00;5.30;82.00
19180;DHT22;9722;48.754;8.868;2022-12-07T15:16:41;5.30;82.60
19180;DHT22;9722;48.754;8.868;2022-12-07T15:20:03;5.20;83.10
19180;DHT22;9722;48.754;8.868;2022-12-07T15:23:24;5.10;83.70
19180;DHT22;9722;48.754;8.868;2022-12-07T15:26:44;5.00;84.30
19180;DHT22;9722;48.754;8.868;2022-12-07T15:30:05;4.90;84.80
19180;DHT22;9722;48.754;8.868;2022-12-07T15:33:26;4.80;85.40
19180;DHT22;9722;48.754;8.868;2022-12-07T15:36:46;4.70;86.00
19180;DHT22;9722;48.754;8.868;2022-12-07T15:40:07;4.60;86.50
19180;DHT22;9722;48.754;8.868;2022-12-07T15:43:28;4.60;87.10
19180;DHT22;9722;48.754;8.868;2022-12-07T15:47:07;4.60;87.20
19180;DHT22;9722;48.754;8.868;2022-12-07T15:50:27;4.50;87.70
19180;DHT22;9722;48.754;8.868;2022-12-07T15:53:48;4.50;88.20
19180;DHT22;9722;48.754;8.868;2022-12-07T15:57:08;4.40;88.30
19180;DHT22;9722;48.754;8.868;2022-12-07T16:00:29;4.30;88.50
19180;DHT22;9722;48.754;8.868;2022-12-07T16:03:49;4.20;88.80
19180;DHT22;9722;48.754;8.868;2022-12-07T16:07:10;4.00;89.00
19180;DHT22;9722;48.754;8.868;2022-12-07T16:10:31;3.90;89.30
19180;DHT22;9722;48.754;8.868;2022-12-07T16:13:52;3.90;89.50
19180;DHT22;9722;48.754;8.868;2022-12-07T16:17:12;3.90;89.80
19180;DHT22;9722;48.754;8.868;2022-12-07T16:20:33;3.90;90.00
19180;DHT22;9722;48.754;8.868;2022-12-07T16:23:53;3.90;90.00
19180;DHT22;9722;48.754;8.868;2022-12-07T16:27:14;3.90;90.10
19180;DHT22;9722;48.754;8.868;2022-12-07T16:30:35;3.90;90.20
19180;DHT22;9722;48.754;8.868;2022-12-07T16:33:57;3.90;90.40
19180;DHT22;9722;48.754;8.868;2022-12-07T16:37:18;3.80;90.40
19180;DHT22;9722;48.754;8.868;2022-12-07T16:40:38;3.80;90.50
19180;DHT22;9722;48.754;8.868;2022-12-07T16:44:05;3.80;90.50
19180;DHT22;9722;48.754;8.868;2022-12-07T16:47:26;3.70;90.50
19180;DHT22;9722;48.754;8.868;2022-12-07T16:50:46;3.70;90.60
19180;DHT22;9722;48.754;8.868;2022-12-07T16:54:09;3.60;90.80
19180;DHT22;9722;48.754;8.868;2022-12-07T16:57:30;3.50;90.80
19180;DHT22;9722;48.754;8.868;2022-12-07T17:00:52;3.50;91.00
19180;DHT22;9722;48.754;8.868;2022-12-07T17:04:12;3.40;91.10
19180;DHT22;9722;48.754;8.868;2022-12-07T17:07:33;3.40;91.20
19180;DHT22;9722;48.754;8.868;2022-12-07T17:10:53;3.30;91.30
19180;DHT22;9722;48.754;8.868;2022-12-07T17:14:14;3.20;91.50
19180;DHT22;9722;48.754;8.868;2022-12-07T17:17:55;3.10;91.60
19180;DHT22;9722;48.754;8.868;2022-12-07T17:21:16;3.10;91.80
19180;DHT22;9722;48.754;8.868;2022-12-07T17:24:36;3.00;91.90
19180;DHT22;9722;48.754;8.868;2022-12-07T17:27:57;2.90;92.00
19180;DHT22;9722;48.754;8.868;2022-12-07T17:31:19;2.90;92.20
19180;DHT22;9722;48.754;8.868;2022-12-07T17:34:40;2.90;92.40
19180;DHT22;9722;48.754;8.868;2022-12-07T17:38:01;2.90;92.50
19180;DHT22;9722;48.754;8.868;2022-12-07T17:41:24;2.80;92.70
19180;DHT22;9722;48.754;8.868;2022-12-07T17:45:05;2.80;92.90
19180;DHT22;9722;48.754;8.868;2022-12-07T17:48:25;2.70;93.00
19180;DHT22;9722;48.754;8.868;2022-12-07T17:51:46;2.70;93.10
19180;DHT22;9722;48.754;8.868;2022-12-07T17:55:25;2.60;93.30
19180;DHT22;9722;48.754;8.868;2022-12-07T17:58:46;2.60;93.50
19180;DHT22;9722;48.754;8.868;2022-12-07T18:02:08;2.60;93.60
19180;DHT22;9722;48.754;8.868;2022-12-07T18:05:29;2.50;93.70
19180;DHT22;9722;48.754;8.868;2022-12-07T18:08:50;2.60;93.80
19180;DHT22;9722;48.754;8.868;2022-12-07T18:12:10;2.50;93.90
19180;DHT22;9722;48.754;8.868;2022-12-07T18:15:31;2.60;94.00
19180;DHT22;9722;48.754;8.868;2022-12-07T18:18:52;2.60;94.00
19180;DHT22;9722;48.754;8.868;2022-12-07T18:22:13;2.60;94.00
19180;DHT22;9722;48.754;8.868;2022-12-07T18:25:33;2.50;94.00
19180;DHT22;9722;48.754;8.868;2022-12-07T18:28:54;2.50;94.10
19180;DHT22;9722;48.754;8.868;2022-12-07T18:32:14;2.40;94.20
19180;DHT22;9722;48.754;8.868;2022-12-07T18:35:35;2.30;94.20
19180;DHT22;9722;48.754;8.868;2022-12-07T18:38:56;2.10;94.30
19180;DHT22;9722;48.754;8.868;2022-12-07T18:42:17;1.90;94.40
19180;DHT22;9722;48.754;8.868;2022-12-07T18:45:39;1.80;94.60
19180;DHT22;9722;48.754;8.868;2022-12-07T18:49:00;1.70;94.90
19180;DHT22;9722;48.754;8.868;2022-12-07T18:52:21;1.50;94.90
19180;DHT22;9722;48.754;8.868;2022-12-07T18:55:41;1.40;95.20
19180;DHT22;9722;48.754;8.868;2022-12-07T18:59:03;1.40;95.50
19180;DHT22;9722;48.754;8.868;2022-12-07T19:02:56;1.40;95.70
19180;DHT22;9722;48.754;8.868;2022-12-07T19:06:16;1.50;95.90
19180;DHT22;9722;48.754;8.868;2022-12-07T19:09:37;1.50;96.00
19180;DHT22;9722;48.754;8.868;2022-12-07T19:12:57;1.60;96.10
19180;DHT22;9722;48.754;8.868;2022-12-07T19:16:18;1.60;96.10
19180;DHT22;9722;48.754;8.868;2022-12-07T19:19:41;1.60;96.20
19180;DHT22;9722;48.754;8.868;2022-12-07T19:23:01;1.60;96.20
19180;DHT22;9722;48.754;8.868;2022-12-07T19:26:22;1.60;96.40
19180;DHT22;9722;48.754;8.868;2022-12-07T19:29:43;1.60;96.50
19180;DHT22;9722;48.754;8.868;2022-12-07T19:33:04;1.60;96.60
19180;DHT22;9722;48.754;8.868;2022-12-07T19:36:25;1.60;96.60
19180;DHT22;9722;48.754;8.868;2022-12-07T19:39:46;1.60;96.60
19180;DHT22;9722;48.754;8.868;2022-12-07T19:43:07;1.60;96.70
19180;DHT22;9722;48.754;8.868;2022-12-07T19:46:28;1.60;96.80
19180;DHT22;9722;48.754;8.868;2022-12-07T19:49:49;1.60;96.90
19180;DHT22;9722;48.754;8.868;2022-12-07T19:53:09;1.70;97.00
19180;DHT22;9722;48.754;8.868;2022-12-07T19:56:30;1.70;96.90
19180;DHT22;9722;48.754;8.868;2022-12-07T19:59:51;1.60;96.90
19180;DHT22;9722;48.754;8.868;2022-12-07T20:03:11;1.70;97.00
19180;DHT22;9722;48.754;8.868;2022-12-07T20:06:32;1.70;97.10
19180;DHT22;9722;48.754;8.868;2022-12-07T20:09:52;1.70;97.10
19180;DHT22;9722;48.754;8.868;2022-12-07T20:13:13;1.80;97.30
19180;DHT22;9722;48.754;8.868;2022-12-07T20:16:50;1.80;97.30
19180;DHT22;9722;48.754;8.868;2022-12-07T20:20:11;1.90;97.30
19180;DHT22;9722;48.754;8.868;2022-12-07T20:23:32;1.90;97.30
19180;DHT22;9722;48.754;8.868;2022-12-07T20:26:53;1.90;97.10
19180;DHT22;9722;48.754;8.868;2022-12-07T20:30:13;1.90;97.10
19180;DHT22;9722;48.754;8.868;2022-12-07T20:33:34;1.90;97.20
19180;DHT22;9722;48.754;8.868;2022-12-07T20:36:54;1.90;97.20
19180;DHT22;9722;48.754;8.868;2022-12-07T20:40:15;1.90;97.30
19180;DHT22;9722;48.754;8.868;2022-12-07T20:43:35;1.90;97.30
19180;DHT22;9722;48.754;8.868;2022-12-07T20:46:56;1.80;97.30
19180;DHT22;9722;48.754;8.868;2022-12-07T20:50:16;1.80;97.30
19180;DHT22;9722;48.754;8.868;2022-12-07T20:53:37;1.70;97.20
19180;DHT22;9722;48.754;8.868;2022-12-07T20:56:57;1.70;97.40
19180;DHT22;9722;48.754;8.868;2022-12-07T21:00:18;1.60;97.50
19180;DHT22;9722;48.754;8.868;2022-12-07T21:03:39;1.50;97.70
19180;DHT22;9722;48.754;8.868;2022-12-07T21:07:00;1.50;97.80
19180;DHT22;9722;48.754;8.868;2022-12-07T21:10:20;1.60;98.00
19180;DHT22;9722;48.754;8.868;2022-12-07T21:13:41;1.60;98.00
19180;DHT22;9722;48.754;8.868;2022-12-07T21:17:01;1.60;98.00
19180;DHT22;9722;48.754;8.868;2022-12-07T21:20:22;1.70;98.00
19180;DHT22;9722;48.754;8.868;2022-12-07T21:23:44;1.70;98.00
19180;DHT22;9722;48.754;8.868;2022-12-07T21:27:05;1.70;98.00
19180;DHT22;9722;48.754;8.868;2022-12-07T21:30:26;1.70;98.00
19180;DHT22;9722;48.754;8.868;2022-12-07T21:33:47;1.60;97.90
19180;DHT22;9722;48.754;8.868;2022-12-07T21:37:08;1.60;97.90
19180;DHT22;9722;48.754;8.868;2022-12-07T21:40:28;1.50;97.90
19180;DHT22;9722;48.754;8.868;2022-12-07T21:43:49;1.40;97.90
19180;DHT22;9722;48.754;8.868;2022-12-07T21:47:10;1.30;98.10
19180;DHT22;9722;48.754;8.868;2022-12-07T21:50:32;1.20;98.20
19180;DHT22;9722;48.754;8.868;2022-12-07T21:53:54;1.20;98.20
19180;DHT22;9722;48.754;8.868;2022-12-07T21:57:15;1.10;98.30
19180;DHT22;9722;48.754;8.868;2022-12-07T22:00:36;1.00;98.30
19180;DHT22;9722;48.754;8.868;2022-12-07T22:03:56;1.00;98.40
19180;DHT22;9722;48.754;8.868;2022-12-07T22:07:17;0.90;98.50
19180;DHT22;9722;48.754;8.868;2022-12-07T22:10:37;0.80;98.40
19180;DHT22;9722;48.754;8.868;2022-12-07T22:13:58;0.70;98.50
19180;DHT22;9722;48.754;8.868;2022-12-07T22:17:37;0.70;98.60
19180;DHT22;9722;48.754;8.868;2022-12-07T22:20:59;0.50;98.70
19180;DHT22;9722;48.754;8.868;2022-12-07T22:24:19;0.50;98.80
19180;DHT22;9722;48.754;8.868;2022-12-07T22:27:40;0.30;98.80
19180;DHT22;9722;48.754;8.868;2022-12-07T22:31:02;0.30;98.90
19180;DHT22;9722;48.754;8.868;2022-12-07T22:34:23;0.20;98.90
19180;DHT22;9722;48.754;8.868;2022-12-07T22:37:44;0.10;99.00
19180;DHT22;9722;48.754;8.868;2022-12-07T22:41:29;-0.10;99.10
19180;DHT22;9722;48.754;8.868;2022-12-07T22:44:50;-0.10;99.20
19180;DHT22;9722;48.754;8.868;2022-12-07T22:48:10;-0.20;99.30
19180;DHT22;9722;48.754;8.868;2022-12-07T22:51:33;-0.30;99.60
19180;DHT22;9722;48.754;8.868;2022-12-07T22:54:53;-0.30;99.60
19180;DHT22;9722;48.754;8.868;2022-12-07T22:58:14;-0.40;99.50
19180;DHT22;9722;48.754;8.868;2022-12-07T23:01:35;-0.40;99.60
19180;DHT22;9722;48.754;8.868;2022-12-07T23:04:56;-0.50;99.70
19180;DHT22;9722;48.754;8.868;2022-12-07T23:08:16;-0.50;99.80
19180;DHT22;9722;48.754;8.868;2022-12-07T23:11:40;-0.50;99.90
19180;DHT22;9722;48.754;8.868;2022-12-07T23:15:19;-0.50;99.90
19180;DHT22;9722;48.754;8.868;2022-12-07T23:18:41;-0.60;99.90
19180;DHT22;9722;48.754;8.868;2022-12-07T23:22:01;-0.60;99.90
19180;DHT22;9722;48.754;8.868;2022-12-07T23:25:22;-0.60;99.90
19180;DHT22;9722;48.754;8.868;2022-12-07T23:28:43;-0.70;99.90
19180;DHT22;9722;48.754;8.868;2022-12-07T23:32:03;-0.70;99.90
19180;DHT22;9722;48.754;8.868;2022-12-07T23:35:24;-0.70;99.90